Time;durP1;ratioP1;P1;durP2;ratioP2;P2;SDS_P1;SDS_P2;PMS_P1;PMS_P2;Temp;Humidity;BMP_temperature;BMP_pressure;BME280_temperature;BME280_humidity;BME280_pressure;Samples;Min_cycle;Max_cycle;Signal;HPM_P1;HPM_P2
2021/03/22 00:01:26;;;;;;;20.73;12.50;;;;;;;;;;5010945;28;20401;-88
2021/03/22 00:03:52;;;;;;;22.75;13.32;;;;;;;;;;5008408;28;20886;-88
2021/03/22 00:06:18;;;;;;;22.60;12.60;;;;;;;;;;5020198;28;20724;-88
2021/03/22 00:08:44;;;;;;;28.60;12.77;;;;;;;;;;5030424;28;20415;-88
2021/03/22 00:11:10;;;;;;;22.90;12.23;;;;;;;;;;5013287;28;20426;-88
2021/03/22 00:13:36;;;;;;;21.85;12.15;;;;;;;;;;5016301;28;20420;-88
2021/03/22 00:16:03;;;;;;;22.17;11.52;;;;;;;;;;5030182;28;20490;-88
2021/03/22 00:18:30;;;;;;;22.13;11.95;;;;;;;;;;5010427;28;20879;-88
2021/03/22 00:20:56;;;;;;;23.13;12.30;;;;;;;;;;5034382;28;20494;-86
2021/03/22 00:23:22;;;;;;;23.73;11.43;;;;;;;;;;5028477;28;20450;-88
2021/03/22 00:25:48;;;;;;;24.85;12.07;;;;;;;;;;5028699;28;20410;-88
2021/03/22 00:28:14;;;;;;;22.57;12.67;;;;;;;;;;5012783;28;20415;-88
2021/03/22 00:30:40;;;;;;;25.30;11.95;;;;;;;;;;5013405;28;20442;-88
2021/03/22 00:33:07;;;;;;;23.38;11.68;;;;;;;;;;5013576;28;20830;-86
2021/03/22 00:35:33;;;;;;;21.00;11.52;;;;;;;;;;5014749;28;20396;-88
2021/03/22 00:37:59;;;;;;;20.92;11.93;;;;;;;;;;5014020;28;20470;-88
2021/03/22 00:40:26;;;;;;;24.15;11.95;;;;;;;;;;5012760;28;20494;-88
2021/03/22 00:42:52;;;;;;;21.60;11.82;;;;;;;;;;5010500;28;20413;-88
2021/03/22 00:45:21;;;;;;;27.35;12.13;;;;;;;;;;5033943;28;20453;-88
2021/03/22 00:47:48;;;;;;;20.80;11.93;;;;;;;;;;5013560;28;20820;-88
2021/03/22 00:50:18;;;;;;;20.88;11.35;;;;;;;;;;5026376;28;20391;-88
2021/03/22 00:52:44;;;;;;;18.65;11.77;;;;;;;;;;5010298;28;20517;-88
2021/03/22 00:55:10;;;;;;;26.70;11.90;;;;;;;;;;5003508;28;20498;-88
2021/03/22 00:57:36;;;;;;;23.02;11.50;;;;;;;;;;5029858;28;20920;-85
2021/03/22 01:00:04;;;;;;;27.80;11.50;;;;;;;;;;5029448;28;20439;-88
2021/03/22 01:02:30;;;;;;;22.73;11.07;;;;;;;;;;5015686;28;20407;-88
2021/03/22 01:04:56;;;;;;;24.80;12.77;;;;;;;;;;5029731;28;20456;-88
2021/03/22 01:07:22;;;;;;;26.23;13.47;;;;;;;;;;5010039;28;20518;-88
2021/03/22 01:09:48;;;;;;;26.13;13.38;;;;;;;;;;5007631;28;20819;-87
2021/03/22 01:12:14;;;;;;;21.92;12.00;;;;;;;;;;5004954;28;20417;-88
2021/03/22 01:14:40;;;;;;;23.67;11.85;;;;;;;;;;5027387;28;20731;-88
2021/03/22 01:17:06;;;;;;;25.70;11.45;;;;;;;;;;5009664;28;20420;-87
2021/03/22 01:19:32;;;;;;;24.83;11.60;;;;;;;;;;5032142;28;20394;-88
2021/03/22 01:21:59;;;;;;;24.77;11.73;;;;;;;;;;5016347;28;20878;-88
2021/03/22 01:24:25;;;;;;;28.90;12.70;;;;;;;;;;5014142;28;20415;-88
2021/03/22 01:26:53;;;;;;;22.52;11.43;;;;;;;;;;5012308;28;20495;-88
2021/03/22 01:29:22;;;;;;;28.88;11.57;;;;;;;;;;5031749;28;20403;-88
2021/03/22 01:31:48;;;;;;;20.33;11.48;;;;;;;;;;5016783;28;20439;-87
2021/03/22 01:34:14;;;;;;;27.15;12.25;;;;;;;;;;5022480;28;20435;-88
2021/03/22 01:36:40;;;;;;;24.55;11.95;;;;;;;;;;5034197;28;20398;-88
2021/03/22 01:39:08;;;;;;;20.97;11.00;;;;;;;;;;5031191;28;20464;-88
2021/03/22 01:41:44;;;;;;;24.95;11.60;;;;;;;;;;5032961;28;20955;-88
2021/03/22 01:44:10;;;;;;;25.25;11.52;;;;;;;;;;5033921;28;20395;-88
2021/03/22 01:46:37;;;;;;;23.63;11.60;;;;;;;;;;5031521;28;20429;-88
2021/03/22 01:49:05;;;;;;;25.33;11.63;;;;;;;;;;5003789;28;20408;-88
2021/03/22 01:51:30;;;;;;;22.85;11.48;;;;;;;;;;5022781;28;20423;-88
2021/03/22 01:53:56;;;;;;;21.67;11.57;;;;;;;;;;5015830;28;20957;-88
2021/03/22 01:56:22;;;;;;;28.27;12.82;;;;;;;;;;5012460;28;20823;-88
2021/03/22 01:58:48;;;;;;;25.98;11.55;;;;;;;;;;5034157;28;20975;-88
2021/03/22 02:01:15;;;;;;;24.20;12.50;;;;;;;;;;5009908;28;20821;-88
2021/03/22 02:03:41;;;;;;;22.63;11.73;;;;;;;;;;5018575;28;20422;-88
2021/03/22 02:06:07;;;;;;;26.63;12.90;;;;;;;;;;5016021;28;20399;-88
2021/03/22 02:08:34;;;;;;;27.55;12.02;;;;;;;;;;5032415;28;20869;-88
2021/03/22 02:11:00;;;;;;;21.35;11.38;;;;;;;;;;5012796;28;20470;-87
2021/03/22 02:13:30;;;;;;;23.02;10.75;;;;;;;;;;5027833;28;20783;-88
2021/03/22 02:16:02;;;;;;;28.42;13.75;;;;;;;;;;5031492;28;20734;-88
2021/03/22 02:18:28;;;;;;;27.50;13.30;;;;;;;;;;5032371;28;20410;-88
2021/03/22 02:21:01;;;;;;;25.83;11.38;;;;;;;;;;5029915;28;20457;-88
2021/03/22 02:23:43;;;;;;;22.00;11.68;;;;;;;;;;5012328;28;20408;-87
2021/03/22 02:26:23;;;;;;;25.08;12.38;;;;;;;;;;5035236;28;20412;-88
2021/03/22 02:28:49;;;;;;;25.88;11.68;;;;;;;;;;5031611;28;20413;-88
2021/03/22 02:31:21;;;;;;;19.60;10.50;;;;;;;;;;5030636;28;20419;-88
2021/03/22 02:34:03;;;;;;;20.73;10.65;;;;;;;;;;5020138;28;20415;-87
2021/03/22 02:36:41;;;;;;;21.67;12.07;;;;;;;;;;5031094;28;20395;-88
2021/03/22 02:39:07;;;;;;;25.50;11.75;;;;;;;;;;5018776;28;20416;-88
2021/03/22 02:41:35;;;;;;;25.05;11.13;;;;;;;;;;5027503;28;20413;-88
2021/03/22 02:44:04;;;;;;;23.45;11.40;;;;;;;;;;5029593;28;20399;-88
2021/03/22 02:46:30;;;;;;;24.40;11.80;;;;;;;;;;5030032;28;20510;-88
2021/03/22 02:48:56;;;;;;;21.15;11.68;;;;;;;;;;5014387;28;20407;-88
2021/03/22 02:51:37;;;;;;;27.38;11.77;;;;;;;;;;5014431;28;20434;-88
2021/03/22 02:54:05;;;;;;;22.90;12.70;;;;;;;;;;5031230;28;20454;-88
2021/03/22 02:56:43;;;;;;;27.38;11.60;;;;;;;;;;5000218;28;20496;-88
2021/03/22 02:59:16;;;;;;;27.50;10.27;;;;;;;;;;5025497;28;20422;-88
2021/03/22 03:01:44;;;;;;;28.75;11.25;;;;;;;;;;5027299;28;20413;-88
2021/03/22 03:04:11;;;;;;;22.33;10.40;;;;;;;;;;5011305;28;20467;-87
2021/03/22 03:06:41;;;;;;;23.63;9.93;;;;;;;;;;5026997;28;20399;-88
2021/03/22 03:09:07;;;;;;;22.50;10.48;;;;;;;;;;5014544;28;20395;-88
2021/03/22 03:11:33;;;;;;;27.13;11.63;;;;;;;;;;4986328;28;1355016;-87
2021/03/22 03:13:59;;;;;;;29.13;11.30;;;;;;;;;;5029015;28;20923;-88
2021/03/22 03:16:25;;;;;;;28.02;10.68;;;;;;;;;;5031206;28;20411;-87
2021/03/22 03:18:51;;;;;;;26.88;12.57;;;;;;;;;;5045313;28;20389;-87
2021/03/22 03:21:17;;;;;;;31.38;12.73;;;;;;;;;;5064928;28;20734;-87
2021/03/22 03:23:43;;;;;;;28.57;12.13;;;;;;;;;;5032793;28;20776;-87
2021/03/22 03:26:09;;;;;;;29.25;12.40;;;;;;;;;;5019887;28;20416;-87
2021/03/22 03:28:35;;;;;;;23.63;11.57;;;;;;;;;;5014375;28;20498;-88
2021/03/22 03:31:00;;;;;;;23.63;11.35;;;;;;;;;;5064156;28;20448;-87
2021/03/22 03:33:26;;;;;;;34.05;12.25;;;;;;;;;;5051840;28;20405;-88
2021/03/22 03:35:52;;;;;;;30.65;11.93;;;;;;;;;;5037743;28;20459;-87
2021/03/22 03:38:18;;;;;;;29.00;12.65;;;;;;;;;;5017254;28;20401;-88
2021/03/22 03:40:45;;;;;;;27.03;11.20;;;;;;;;;;5016545;28;20766;-88
2021/03/22 03:43:11;;;;;;;26.80;11.13;;;;;;;;;;5016446;28;20422;-88
2021/03/22 03:45:38;;;;;;;26.55;11.95;;;;;;;;;;5004857;28;20403;-88
2021/03/22 03:48:05;;;;;;;34.78;11.65;;;;;;;;;;5032219;28;20396;-88
2021/03/22 03:50:31;;;;;;;30.55;11.68;;;;;;;;;;5004817;28;20490;-88
2021/03/22 03:52:57;;;;;;;32.25;12.27;;;;;;;;;;5044291;28;20890;-88
2021/03/22 03:55:24;;;;;;;31.45;12.13;;;;;;;;;;5011719;28;20935;-88
2021/03/22 03:57:50;;;;;;;24.88;12.13;;;;;;;;;;5001427;28;20419;-87
2021/03/22 04:00:41;;;;;;;32.17;11.10;;;;;;;;;;5032307;28;20441;-88
2021/03/22 04:03:24;;;;;;;24.23;10.27;;;;;;;;;;5034334;28;20509;-88
2021/03/22 04:05:54;;;;;;;25.75;10.73;;;;;;;;;;5017528;28;20401;-88
2021/03/22 04:08:20;;;;;;;23.30;9.18;;;;;;;;;;5016638;28;20448;-88
2021/03/22 04:10:46;;;;;;;34.08;9.68;;;;;;;;;;5003169;28;20407;-87
2021/03/22 04:13:12;;;;;;;29.42;11.20;;;;;;;;;;5011086;28;20423;-88
2021/03/22 04:15:38;;;;;;;33.40;11.20;;;;;;;;;;5024934;28;20395;-87
2021/03/22 04:18:04;;;;;;;27.92;10.10;;;;;;;;;;5030130;28;20937;-87
2021/03/22 04:20:30;;;;;;;42.03;12.27;;;;;;;;;;5030350;28;20407;-88
2021/03/22 04:22:56;;;;;;;30.52;11.05;;;;;;;;;;5009207;28;20427;-87
2021/03/22 04:25:22;;;;;;;39.38;13.07;;;;;;;;;;5042139;28;22237;-87
2021/03/22 04:27:48;;;;;;;31.15;11.55;;;;;;;;;;5034575;28;20429;-88
2021/03/22 04:30:14;;;;;;;31.17;11.68;;;;;;;;;;5013480;28;20782;-88
2021/03/22 04:32:40;;;;;;;31.58;9.13;;;;;;;;;;5030261;28;20403;-88
2021/03/22 04:35:07;;;;;;;25.17;8.10;;;;;;;;;;5017717;28;20976;-87
2021/03/22 04:37:32;;;;;;;29.42;8.43;;;;;;;;;;5028878;28;20890;-88
2021/03/22 04:39:58;;;;;;;25.53;9.00;;;;;;;;;;5015910;28;20463;-87
2021/03/22 04:42:24;;;;;;;26.45;9.27;;;;;;;;;;5026978;28;20475;-88
2021/03/22 04:44:50;;;;;;;27.75;8.60;;;;;;;;;;5013663;28;20415;-88
2021/03/22 04:47:16;;;;;;;27.38;9.00;;;;;;;;;;5003724;28;20485;-87
2021/03/22 04:49:42;;;;;;;20.80;8.65;;;;;;;;;;5028921;28;20724;-87
2021/03/22 04:52:09;;;;;;;22.17;8.45;;;;;;;;;;5012406;28;20461;-88
2021/03/22 04:54:34;;;;;;;35.90;10.20;;;;;;;;;;5028690;28;20449;-87
2021/03/22 04:57:19;;;;;;;33.55;9.30;;;;;;;;;;5026728;28;20798;-88
2021/03/22 04:59:45;;;;;;;30.70;9.73;;;;;;;;;;5027858;28;20412;-87
2021/03/22 05:02:11;;;;;;;23.50;8.27;;;;;;;;;;5025601;28;20433;-88
2021/03/22 05:04:37;;;;;;;29.57;9.20;;;;;;;;;;5029883;28;20433;-88
2021/03/22 05:07:03;;;;;;;38.58;11.60;;;;;;;;;;5026718;28;20412;-88
2021/03/22 05:09:29;;;;;;;34.30;11.40;;;;;;;;;;5043431;28;20408;-88
2021/03/22 05:11:55;;;;;;;29.08;10.95;;;;;;;;;;5025713;28;20520;-87
2021/03/22 05:14:21;;;;;;;33.35;10.45;;;;;;;;;;5033275;28;20410;-88
2021/03/22 05:16:51;;;;;;;26.30;9.50;;;;;;;;;;5030091;28;20414;-87
2021/03/22 05:19:17;;;;;;;25.08;8.95;;;;;;;;;;5010198;28;20431;-88
2021/03/22 05:21:43;;;;;;;26.88;9.13;;;;;;;;;;5027969;28;20425;-88
2021/03/22 05:24:09;;;;;;;29.63;9.52;;;;;;;;;;5022286;28;20423;-86
2021/03/22 05:26:35;;;;;;;28.48;9.13;;;;;;;;;;5023018;28;20421;-89
2021/03/22 05:29:01;;;;;;;27.83;9.95;;;;;;;;;;5016711;28;20413;-88
2021/03/22 05:31:27;;;;;;;21.83;9.32;;;;;;;;;;5022430;28;20491;-87
2021/03/22 05:33:59;;;;;;;31.03;10.17;;;;;;;;;;5011789;28;20443;-86
2021/03/22 05:36:27;;;;;;;26.35;10.00;;;;;;;;;;5034648;28;20411;-86
2021/03/22 05:38:53;;;;;;;25.63;9.48;;;;;;;;;;5028199;28;20436;-87
2021/03/22 05:41:19;;;;;;;30.20;10.20;;;;;;;;;;5025874;28;20456;-86
2021/03/22 05:44:08;;;;;;;28.23;10.80;;;;;;;;;;5024809;28;20822;-87
2021/03/22 05:47:04;;;;;;;23.60;10.47;;;;;;;;;;4997836;28;20492;-86
2021/03/22 05:49:47;;;;;;;28.65;10.23;;;;;;;;;;5011132;28;20437;-87
2021/03/22 05:52:23;;;;;;;30.90;10.52;;;;;;;;;;5021164;28;20418;-88
2021/03/22 05:54:49;;;;;;;25.05;10.10;;;;;;;;;;5022728;28;20482;-87
2021/03/22 05:57:21;;;;;;;29.27;9.80;;;;;;;;;;5032841;28;20486;-88
2021/03/22 05:59:59;;;;;;;27.38;10.05;;;;;;;;;;5029991;28;20399;-86
2021/03/22 06:02:33;;;;;;;31.38;9.65;;;;;;;;;;5027227;28;20932;-87
2021/03/22 06:05:03;;;;;;;27.20;9.70;;;;;;;;;;5025646;28;20417;-86
2021/03/22 06:07:29;;;;;;;30.55;10.02;;;;;;;;;;5023969;28;20401;-86
2021/03/22 06:10:00;;;;;;;24.43;9.33;;;;;;;;;;5006830;28;20739;-87
2021/03/22 06:12:32;;;;;;;33.33;9.32;;;;;;;;;;5024630;28;20417;-88
2021/03/22 06:15:16;;;;;;;28.52;8.75;;;;;;;;;;5032540;28;20394;-86
2021/03/22 06:17:49;;;;;;;24.40;9.73;;;;;;;;;;5019412;28;20411;-87
2021/03/22 06:20:24;;;;;;;30.73;9.43;;;;;;;;;;5031293;28;20419;-87
2021/03/22 06:22:50;;;;;;;26.48;8.88;;;;;;;;;;5012840;28;20513;-87
2021/03/22 06:25:18;;;;;;;26.30;8.63;;;;;;;;;;5031496;28;20811;-87
2021/03/22 06:27:44;;;;;;;29.63;11.10;;;;;;;;;;5031030;28;20395;-89
2021/03/22 06:30:14;;;;;;;33.10;9.40;;;;;;;;;;5026049;28;20397;-88
2021/03/22 06:39:29;;;;;;;26.15;9.40;;;;;;;;;;5036373;28;20426;-91
2021/03/22 06:42:46;;;;;;;37.05;11.63;;;;;;;;;;5034244;28;20766;-89
2021/03/22 06:45:26;;;;;;;27.17;12.05;;;;;;;;;;5031752;28;20406;-87
2021/03/22 06:48:18;;;;;;;37.80;15.95;;;;;;;;;;5026372;28;20416;-87
2021/03/22 06:50:44;;;;;;;45.30;17.80;;;;;;;;;;5022839;28;20894;-87
2021/03/22 06:53:10;;;;;;;35.47;15.27;;;;;;;;;;5032368;28;20406;-87
2021/03/22 06:55:37;;;;;;;42.47;18.25;;;;;;;;;;5031437;28;20750;-87
2021/03/22 06:58:03;;;;;;;38.85;14.35;;;;;;;;;;5014964;28;20905;-87
2021/03/22 07:00:30;;;;;;;36.17;15.13;;;;;;;;;;5031739;28;20439;-87
2021/03/22 07:03:26;;;;;;;34.90;11.48;;;;;;;;;;5029712;28;20423;-86
2021/03/22 07:05:52;;;;;;;25.67;10.02;;;;;;;;;;5003594;28;20403;-87
2021/03/22 07:08:21;;;;;;;28.50;12.23;;;;;;;;;;5014212;28;20976;-87
2021/03/22 07:10:54;;;;;;;27.47;9.83;;;;;;;;;;5030414;28;20544;-87
2021/03/22 07:13:26;;;;;;;31.27;10.15;;;;;;;;;;5016518;28;20503;-87
2021/03/22 07:15:56;;;;;;;28.77;9.82;;;;;;;;;;5011510;28;20397;-87
2021/03/22 07:18:23;;;;;;;30.77;10.43;;;;;;;;;;4996177;28;20422;-87
2021/03/22 07:20:48;;;;;;;29.67;10.05;;;;;;;;;;4990327;28;20478;-86
2021/03/22 07:23:21;;;;;;;29.00;9.10;;;;;;;;;;5027737;28;20407;-86
2021/03/22 07:25:49;;;;;;;27.42;10.00;;;;;;;;;;5010533;28;20894;-87
2021/03/22 07:28:16;;;;;;;33.83;10.57;;;;;;;;;;4994802;28;20911;-87
2021/03/22 07:30:42;;;;;;;25.05;9.07;;;;;;;;;;5010587;28;20420;-87
2021/03/22 07:33:11;;;;;;;22.90;9.05;;;;;;;;;;4993587;28;20421;-87
2021/03/22 07:35:37;;;;;;;29.90;9.95;;;;;;;;;;5027523;28;20397;-87
2021/03/22 07:38:14;;;;;;;28.83;11.27;;;;;;;;;;5009571;28;20405;-86
2021/03/22 07:40:44;;;;;;;33.25;10.40;;;;;;;;;;5010884;28;20799;-88
2021/03/22 07:43:31;;;;;;;34.45;9.65;;;;;;;;;;4996139;28;20928;-86
2021/03/22 07:46:16;;;;;;;32.03;10.77;;;;;;;;;;5010774;28;20385;-87
2021/03/22 07:49:00;;;;;;;35.00;11.60;;;;;;;;;;5012294;28;20408;-87
2021/03/22 07:51:41;;;;;;;35.95;14.13;;;;;;;;;;5011632;28;20744;-87
2021/03/22 07:54:25;;;;;;;36.10;13.32;;;;;;;;;;5010495;28;20397;-87
2021/03/22 07:56:57;;;;;;;35.38;14.23;;;;;;;;;;4988638;28;20562;-87
2021/03/22 07:59:26;;;;;;;41.40;15.63;;;;;;;;;;5012334;28;20491;-87
2021/03/22 08:02:03;;;;;;;30.37;10.63;;;;;;;;;;5011005;28;20986;-88
2021/03/22 08:04:48;;;;;;;36.67;13.65;;;;;;;;;;5011870;28;20519;-88
2021/03/22 08:07:41;;;;;;;31.05;11.35;;;;;;;;;;5008906;28;20895;-87
2021/03/22 08:10:22;;;;;;;27.60;8.80;;;;;;;;;;5008725;28;20413;-87
2021/03/22 08:12:51;;;;;;;26.50;8.10;;;;;;;;;;5021801;28;20422;-88
2021/03/22 08:15:32;;;;;;;28.33;9.03;;;;;;;;;;5031480;28;20502;-87
2021/03/22 08:18:13;;;;;;;35.28;9.30;;;;;;;;;;5031279;28;20406;-87
2021/03/22 08:20:48;;;;;;;27.27;7.88;;;;;;;;;;5012866;28;20397;-87
2021/03/22 08:23:17;;;;;;;21.60;7.15;;;;;;;;;;5030837;28;20898;-87
2021/03/22 08:25:53;;;;;;;24.42;6.18;;;;;;;;;;5012945;28;20407;-87
2021/03/22 08:28:25;;;;;;;28.27;7.60;;;;;;;;;;5013304;28;20517;-87
2021/03/22 08:31:10;;;;;;;19.02;5.72;;;;;;;;;;5029946;28;20510;-87
2021/03/22 08:33:40;;;;;;;28.15;8.00;;;;;;;;;;5021850;28;20467;-87
2021/03/22 08:36:17;;;;;;;24.02;6.65;;;;;;;;;;5029017;28;20411;-87
2021/03/22 08:38:43;;;;;;;22.48;6.45;;;;;;;;;;5031243;28;20395;-87
2021/03/22 08:41:42;;;;;;;22.13;6.90;;;;;;;;;;5028300;28;20490;-87
2021/03/22 08:44:24;;;;;;;25.20;8.68;;;;;;;;;;5028982;28;20830;-88
2021/03/22 08:46:50;;;;;;;27.15;8.75;;;;;;;;;;5010451;28;20413;-87
2021/03/22 08:49:25;;;;;;;25.42;5.88;;;;;;;;;;5027839;28;20395;-88
2021/03/22 08:51:52;;;;;;;18.10;5.55;;;;;;;;;;5010241;28;20908;-87
2021/03/22 08:54:28;;;;;;;24.45;6.43;;;;;;;;;;5025894;28;20389;-87
2021/03/22 08:57:02;;;;;;;21.30;5.38;;;;;;;;;;5031155;28;20418;-87
2021/03/22 08:59:37;;;;;;;15.98;4.60;;;;;;;;;;5029612;28;20428;-87
2021/03/22 09:02:29;;;;;;;14.95;5.10;;;;;;;;;;5029682;28;20411;-87
2021/03/22 09:04:55;;;;;;;17.87;5.60;;;;;;;;;;5038608;28;20917;-87
2021/03/22 09:07:42;;;;;;;22.75;5.82;;;;;;;;;;5030483;28;20418;-88
2021/03/22 09:10:21;;;;;;;18.35;5.35;;;;;;;;;;5009986;28;20492;-87
2021/03/22 09:12:48;;;;;;;22.88;4.68;;;;;;;;;;5019081;28;20496;-87
2021/03/22 09:15:36;;;;;;;21.65;5.05;;;;;;;;;;4995973;28;20772;-87
2021/03/22 09:18:05;;;;;;;16.55;4.97;;;;;;;;;;5009883;28;20496;-87
2021/03/22 09:20:54;;;;;;;18.40;5.17;;;;;;;;;;5009383;28;20759;-87
2021/03/22 09:23:33;;;;;;;17.75;6.70;;;;;;;;;;5015979;28;20483;-87
2021/03/22 09:26:01;;;;;;;18.48;4.90;;;;;;;;;;5011047;28;20879;-87
2021/03/22 09:28:27;;;;;;;20.63;5.38;;;;;;;;;;5010766;28;20421;-87
2021/03/22 09:31:02;;;;;;;22.27;5.87;;;;;;;;;;5015374;28;20408;-87
2021/03/22 09:33:47;;;;;;;20.27;4.65;;;;;;;;;;5010232;28;20400;-87
2021/03/22 09:36:24;;;;;;;20.10;4.75;;;;;;;;;;5009721;28;20421;-87
2021/03/22 09:38:50;;;;;;;22.67;5.28;;;;;;;;;;4990014;28;20940;-87
2021/03/22 09:41:16;;;;;;;19.37;4.73;;;;;;;;;;5009803;28;20422;-87
2021/03/22 09:43:43;;;;;;;13.50;4.43;;;;;;;;;;5013478;28;20404;-87
2021/03/22 09:46:18;;;;;;;15.98;4.53;;;;;;;;;;5013435;28;20488;-87
2021/03/22 09:48:44;;;;;;;18.10;5.53;;;;;;;;;;5013034;28;20818;-87
2021/03/22 09:51:10;;;;;;;15.82;4.88;;;;;;;;;;5014685;28;20442;-87
2021/03/22 09:53:54;;;;;;;16.67;5.50;;;;;;;;;;5017948;28;20393;-87
2021/03/22 09:56:23;;;;;;;21.40;5.55;;;;;;;;;;5013512;28;20401;-86
2021/03/22 09:58:50;;;;;;;17.27;5.28;;;;;;;;;;5008292;28;20428;-87
2021/03/22 10:01:33;;;;;;;17.25;4.70;;;;;;;;;;4996779;28;20424;-87
2021/03/22 10:04:20;;;;;;;20.98;5.05;;;;;;;;;;5010183;28;20410;-87
2021/03/22 10:06:48;;;;;;;13.52;4.88;;;;;;;;;;5004042;28;20396;-87
2021/03/22 10:09:19;;;;;;;12.73;4.30;;;;;;;;;;4995234;28;20764;-87
2021/03/22 10:11:46;;;;;;;12.38;4.57;;;;;;;;;;5000140;28;20980;-86
2021/03/22 10:14:19;;;;;;;10.73;3.55;;;;;;;;;;5027929;28;20428;-87
2021/03/22 10:16:49;;;;;;;11.63;3.85;;;;;;;;;;5035929;28;20907;-86
2021/03/22 10:19:19;;;;;;;9.48;3.47;;;;;;;;;;5040573;28;20408;-87
2021/03/22 10:21:50;;;;;;;11.52;3.95;;;;;;;;;;5035692;28;20417;-87
2021/03/22 10:24:31;;;;;;;12.53;4.63;;;;;;;;;;5020753;28;20528;-88
2021/03/22 10:26:57;;;;;;;9.70;3.65;;;;;;;;;;5032327;28;20400;-87
2021/03/22 10:29:25;;;;;;;8.05;2.83;;;;;;;;;;5019298;28;20745;-87
2021/03/22 10:32:01;;;;;;;6.57;2.67;;;;;;;;;;5049084;28;20464;-87
2021/03/22 10:34:29;;;;;;;11.68;3.33;;;;;;;;;;5021216;28;20440;-87
2021/03/22 10:36:55;;;;;;;9.82;3.47;;;;;;;;;;5043638;28;20448;-87
2021/03/22 10:39:35;;;;;;;8.98;2.80;;;;;;;;;;5041977;28;20420;-87
2021/03/22 10:42:01;;;;;;;9.75;2.97;;;;;;;;;;5018489;28;20527;-87
2021/03/22 10:45:12;;;;;;;9.38;3.15;;;;;;;;;;5018761;28;20420;-87
2021/03/22 10:47:38;;;;;;;10.30;3.30;;;;;;;;;;4970233;28;20466;-87
2021/03/22 10:50:22;;;;;;;9.30;3.08;;;;;;;;;;5035742;28;21198;-87
2021/03/22 10:53:03;;;;;;;7.07;2.78;;;;;;;;;;5029213;28;20401;-87
2021/03/22 10:55:29;;;;;;;10.43;2.75;;;;;;;;;;5035197;28;20485;-87
2021/03/22 10:57:55;;;;;;;9.63;2.65;;;;;;;;;;5017064;28;20496;-87
2021/03/22 11:00:29;;;;;;;10.85;3.88;;;;;;;;;;5034334;28;20455;-87
2021/03/22 11:02:55;;;;;;;7.93;3.00;;;;;;;;;;5025909;28;20405;-87
2021/03/22 11:05:26;;;;;;;11.40;3.70;;;;;;;;;;5047898;28;20397;-87
2021/03/22 11:08:15;;;;;;;12.07;3.40;;;;;;;;;;5034636;28;20393;-87
2021/03/22 11:10:41;;;;;;;9.90;2.60;;;;;;;;;;5027519;28;20410;-87
2021/03/22 11:13:07;;;;;;;10.73;3.20;;;;;;;;;;5019641;28;20404;-88
2021/03/22 11:15:34;;;;;;;8.52;2.70;;;;;;;;;;5034774;28;20480;-87
2021/03/22 11:18:01;;;;;;;9.82;2.92;;;;;;;;;;5024481;28;20433;-89
2021/03/22 11:20:30;;;;;;;8.77;3.20;;;;;;;;;;5050123;28;20404;-88
2021/03/22 11:23:15;;;;;;;5.95;2.75;;;;;;;;;;5024167;28;20415;-85
2021/03/22 11:25:41;;;;;;;11.93;2.97;;;;;;;;;;5047948;28;20396;-87
2021/03/22 11:28:10;;;;;;;8.35;2.58;;;;;;;;;;5038996;28;20413;-88
2021/03/22 11:30:59;;;;;;;11.55;4.18;;;;;;;;;;5051055;28;20438;-87
2021/03/22 11:33:26;;;;;;;8.68;3.10;;;;;;;;;;5030804;28;20468;-87
2021/03/22 11:36:21;;;;;;;14.02;4.00;;;;;;;;;;5016938;28;20435;-85
2021/03/22 11:38:52;;;;;;;6.07;2.78;;;;;;;;;;5034234;28;20444;-87
2021/03/22 11:41:32;;;;;;;8.77;4.03;;;;;;;;;;5046711;28;20403;-86
2021/03/22 11:44:06;;;;;;;9.57;3.53;;;;;;;;;;5033573;28;20936;-87
2021/03/22 11:46:32;;;;;;;8.82;3.60;;;;;;;;;;5047032;28;20404;-87
2021/03/22 11:48:58;;;;;;;7.57;4.73;;;;;;;;;;5041494;28;20412;-87
2021/03/22 11:51:24;;;;;;;13.85;7.10;;;;;;;;;;5034084;28;20492;-87
2021/03/22 11:54:06;;;;;;;8.32;3.78;;;;;;;;;;5013709;28;20414;-88
2021/03/22 11:56:34;;;;;;;7.05;2.80;;;;;;;;;;5026042;28;20409;-88
2021/03/22 11:59:23;;;;;;;6.60;2.42;;;;;;;;;;5030317;28;20951;-87
2021/03/22 12:02:06;;;;;;;9.63;3.38;;;;;;;;;;5045770;28;20443;-88
2021/03/22 12:04:33;;;;;;;12.77;3.83;;;;;;;;;;5004113;28;20432;-87
2021/03/22 12:07:05;;;;;;;13.80;3.58;;;;;;;;;;5024771;28;20452;-87
2021/03/22 12:09:32;;;;;;;8.88;3.13;;;;;;;;;;5015856;28;20413;-87
2021/03/22 12:12:01;;;;;;;8.93;3.20;;;;;;;;;;5017114;28;20428;-89
2021/03/22 12:14:27;;;;;;;12.25;3.25;;;;;;;;;;5052402;28;20451;-88
2021/03/22 12:16:57;;;;;;;11.93;3.10;;;;;;;;;;5034357;28;20492;-88
2021/03/22 12:19:29;;;;;;;10.25;3.35;;;;;;;;;;5016863;28;20400;-88
2021/03/22 12:21:56;;;;;;;10.38;3.25;;;;;;;;;;5032766;28;20449;-87
2021/03/22 12:24:22;;;;;;;11.80;4.13;;;;;;;;;;5032094;28;20484;-87
2021/03/22 12:26:51;;;;;;;8.48;3.10;;;;;;;;;;5017864;28;20495;-88
2021/03/22 12:29:17;;;;;;;9.43;3.47;;;;;;;;;;5051076;28;20487;-86
2021/03/22 12:31:47;;;;;;;17.10;3.40;;;;;;;;;;5033532;28;20494;-86
2021/03/22 12:34:14;;;;;;;10.45;3.47;;;;;;;;;;5030149;28;20395;-87
2021/03/22 12:36:40;;;;;;;11.48;3.78;;;;;;;;;;5032749;28;20462;-87
2021/03/22 12:39:26;;;;;;;13.05;4.28;;;;;;;;;;5032195;28;20919;-89
2021/03/22 12:41:53;;;;;;;12.43;4.65;;;;;;;;;;5027888;28;20417;-88
2021/03/22 12:44:22;;;;;;;11.10;3.95;;;;;;;;;;5035801;28;20823;-87
2021/03/22 12:46:51;;;;;;;9.43;3.67;;;;;;;;;;5050568;28;20397;-88
2021/03/22 12:49:17;;;;;;;9.95;4.03;;;;;;;;;;5024764;28;20411;-88
2021/03/22 12:51:43;;;;;;;7.95;3.10;;;;;;;;;;5043763;28;20451;-88
2021/03/22 12:54:10;;;;;;;12.15;3.40;;;;;;;;;;5046365;28;20432;-88
2021/03/22 12:56:36;;;;;;;8.52;4.05;;;;;;;;;;5033159;28;20398;-88
2021/03/22 12:59:19;;;;;;;8.68;2.90;;;;;;;;;;5022870;28;20400;-88
2021/03/22 13:01:45;;;;;;;13.43;3.60;;;;;;;;;;5032780;28;20421;-91
2021/03/22 13:04:14;;;;;;;9.70;3.80;;;;;;;;;;5016657;28;20404;-87
2021/03/22 13:06:40;;;;;;;12.73;4.13;;;;;;;;;;5049873;28;20757;-88
2021/03/22 13:09:09;;;;;;;11.27;4.07;;;;;;;;;;5029217;28;20406;-88
2021/03/22 13:11:41;;;;;;;15.32;3.72;;;;;;;;;;5017324;28;20480;-88
2021/03/22 13:14:09;;;;;;;10.73;3.90;;;;;;;;;;5015297;28;20421;-89
2021/03/22 13:16:38;;;;;;;11.20;3.63;;;;;;;;;;5015274;28;20428;-89
2021/03/22 13:19:04;;;;;;;11.05;4.05;;;;;;;;;;5048600;28;20463;-88
2021/03/22 13:21:29;;;;;;;8.13;3.20;;;;;;;;;;5018637;28;20452;-89
2021/03/22 13:23:55;;;;;;;9.43;2.90;;;;;;;;;;5037735;28;20401;-89
2021/03/22 13:26:22;;;;;;;9.93;3.28;;;;;;;;;;5037229;28;20397;-88
2021/03/22 13:28:53;;;;;;;9.50;2.80;;;;;;;;;;5068187;28;20409;-88
2021/03/22 13:31:19;;;;;;;8.65;3.13;;;;;;;;;;5038230;28;20404;-88
2021/03/22 13:33:45;;;;;;;8.77;3.42;;;;;;;;;;5036260;28;20416;-88
2021/03/22 13:36:15;;;;;;;9.60;3.70;;;;;;;;;;5008819;28;20486;-89
2021/03/22 13:38:41;;;;;;;9.73;3.43;;;;;;;;;;5017509;28;20399;-88
2021/03/22 13:41:13;;;;;;;8.93;4.45;;;;;;;;;;5018915;28;20926;-89
2021/03/22 13:43:39;;;;;;;8.60;3.40;;;;;;;;;;5023333;28;20397;-88
2021/03/22 13:46:05;;;;;;;12.38;4.43;;;;;;;;;;5021417;28;20828;-89
2021/03/22 13:48:31;;;;;;;10.45;4.80;;;;;;;;;;5041339;28;20413;-88
2021/03/22 13:50:59;;;;;;;12.77;4.55;;;;;;;;;;5053732;28;20753;-87
2021/03/22 13:53:25;;;;;;;10.15;4.10;;;;;;;;;;5037207;28;20400;-86
2021/03/22 13:55:51;;;;;;;10.82;3.72;;;;;;;;;;5037326;28;20500;-87
2021/03/22 13:58:18;;;;;;;13.85;3.92;;;;;;;;;;5033675;28;20401;-87
2021/03/22 14:00:44;;;;;;;10.30;4.13;;;;;;;;;;5052904;28;20446;-88
2021/03/22 14:03:10;;;;;;;11.68;3.42;;;;;;;;;;5059568;28;20755;-87
2021/03/22 14:05:36;;;;;;;9.43;3.60;;;;;;;;;;5046287;28;20404;-85
2021/03/22 14:08:05;;;;;;;9.13;3.10;;;;;;;;;;5027870;28;20437;-88
2021/03/22 14:10:31;;;;;;;9.93;4.07;;;;;;;;;;5044481;28;20393;-88
2021/03/22 14:12:57;;;;;;;7.05;2.97;;;;;;;;;;5031260;28;20505;-88
2021/03/22 14:15:26;;;;;;;9.48;3.85;;;;;;;;;;5033452;28;20403;-88
2021/03/22 14:17:52;;;;;;;8.80;3.70;;;;;;;;;;5054710;28;20491;-87
2021/03/22 14:20:18;;;;;;;12.55;5.03;;;;;;;;;;5050709;28;20478;-87
2021/03/22 14:22:44;;;;;;;6.72;3.15;;;;;;;;;;5053619;28;20428;-87
2021/03/22 14:25:11;;;;;;;9.32;3.53;;;;;;;;;;5035183;28;20397;-88
2021/03/22 14:27:37;;;;;;;9.98;3.63;;;;;;;;;;5029667;28;20772;-87
2021/03/22 14:30:04;;;;;;;6.93;4.33;;;;;;;;;;5023544;28;20960;-88
2021/03/22 14:32:35;;;;;;;10.07;4.28;;;;;;;;;;5057882;28;20490;-88
2021/03/22 14:35:01;;;;;;;13.73;4.72;;;;;;;;;;5052644;28;20437;-87
2021/03/22 14:37:27;;;;;;;9.25;3.92;;;;;;;;;;5052511;28;20440;-88
2021/03/22 14:39:53;;;;;;;9.90;5.10;;;;;;;;;;5052082;28;20397;-87
2021/03/22 14:42:20;;;;;;;17.17;5.63;;;;;;;;;;5035221;28;20421;-87
2021/03/22 14:44:46;;;;;;;11.05;5.10;;;;;;;;;;5035336;28;20497;-87
2021/03/22 14:47:12;;;;;;;12.65;4.75;;;;;;;;;;5035896;28;20945;-87
2021/03/22 14:49:38;;;;;;;10.93;3.75;;;;;;;;;;5016939;28;20498;-88
2021/03/22 14:52:04;;;;;;;7.60;4.18;;;;;;;;;;5049231;28;20489;-88